sensor_id;sensor_type;location;lat;lon;timestamp;temperature;humidity
70300;HTU21D;57704;51.112;5.878;2022-10-31T00:00:46;18.18;67.91
70300;HTU21D;57704;51.112;5.878;2022-10-31T00:03:12;18.12;68.10
70300;HTU21D;57704;51.112;5.878;2022-10-31T00:05:43;18.10;68.15
70300;HTU21D;57704;51.112;5.878;2022-10-31T00:08:09;18.08;68.14
70300;HTU21D;57704;51.112;5.878;2022-10-31T00:10:42;18.02;68.24
70300;HTU21D;57704;51.112;5.878;2022-10-31T00:13:10;17.95;68.46
70300;HTU21D;57704;51.112;5.878;2022-10-31T00:15:38;17.91;68.66
70300;HTU21D;57704;51.112;5.878;2022-10-31T00:18:06;17.91;68.70
70300;HTU21D;57704;51.112;5.878;2022-10-31T00:20:33;17.87;68.68
70300;HTU21D;57704;51.112;5.878;2022-10-31T00:23:01;17.85;68.65
70300;HTU21D;57704;51.112;5.878;2022-10-31T00:25:28;17.78;68.81
70300;HTU21D;57704;51.112;5.878;2022-10-31T00:27:54;17.73;68.89
70300;HTU21D;57704;51.112;5.878;2022-10-31T00:30:20;17.72;68.81
70300;HTU21D;57704;51.112;5.878;2022-10-31T00:32:46;17.70;68.81
70300;HTU21D;57704;51.112;5.878;2022-10-31T00:35:12;17.69;68.73
70300;HTU21D;57704;51.112;5.878;2022-10-31T00:37:38;17.63;68.96
70300;HTU21D;57704;51.112;5.878;2022-10-31T00:40:05;17.50;69.29
70300;HTU21D;57704;51.112;5.878;2022-10-31T00:42:32;17.45;69.57
70300;HTU21D;57704;51.112;5.878;2022-10-31T00:44:57;17.40;69.68
70300;HTU21D;57704;51.112;5.878;2022-10-31T00:47:23;17.39;69.73
70300;HTU21D;57704;51.112;5.878;2022-10-31T00:49:49;17.38;69.79
70300;HTU21D;57704;51.112;5.878;2022-10-31T00:52:15;17.33;70.00
70300;HTU21D;57704;51.112;5.878;2022-10-31T00:54:42;17.21;70.31
70300;HTU21D;57704;51.112;5.878;2022-10-31T00:57:08;17.18;70.45
70300;HTU21D;57704;51.112;5.878;2022-10-31T00:59:34;17.22;70.41
70300;HTU21D;57704;51.112;5.878;2022-10-31T01:02:00;17.23;70.23
70300;HTU21D;57704;51.112;5.878;2022-10-31T01:04:26;17.21;70.18
70300;HTU21D;57704;51.112;5.878;2022-10-31T01:06:52;17.20;70.18
70300;HTU21D;57704;51.112;5.878;2022-10-31T01:09:18;17.18;70.11
70300;HTU21D;57704;51.112;5.878;2022-10-31T01:11:44;17.18;70.18
70300;HTU21D;57704;51.112;5.878;2022-10-31T01:14:10;17.14;70.23
70300;HTU21D;57704;51.112;5.878;2022-10-31T01:16:36;17.16;70.23
70300;HTU21D;57704;51.112;5.878;2022-10-31T01:19:02;17.16;70.13
70300;HTU21D;57704;51.112;5.878;2022-10-31T01:21:29;17.15;70.15
70300;HTU21D;57704;51.112;5.878;2022-10-31T01:23:59;17.15;70.24
70300;HTU21D;57704;51.112;5.878;2022-10-31T01:26:28;17.17;70.23
70300;HTU21D;57704;51.112;5.878;2022-10-31T01:28:58;17.15;70.23
70300;HTU21D;57704;51.112;5.878;2022-10-31T01:31:36;17.15;70.18
70300;HTU21D;57704;51.112;5.878;2022-10-31T01:34:02;17.15;70.19
70300;HTU21D;57704;51.112;5.878;2022-10-31T01:36:35;17.16;70.15
70300;HTU21D;57704;51.112;5.878;2022-10-31T01:39:05;17.15;70.17
70300;HTU21D;57704;51.112;5.878;2022-10-31T01:41:34;17.13;70.23
70300;HTU21D;57704;51.112;5.878;2022-10-31T01:47:08;17.10;70.23
70300;HTU21D;57704;51.112;5.878;2022-10-31T01:54:43;17.04;70.39
70300;HTU21D;57704;51.112;5.878;2022-10-31T01:57:13;17.03;70.24
70300;HTU21D;57704;51.112;5.878;2022-10-31T01:59:47;17.01;70.39
70300;HTU21D;57704;51.112;5.878;2022-10-31T02:02:17;16.95;70.58
70300;HTU21D;57704;51.112;5.878;2022-10-31T02:04:46;16.94;70.53
70300;HTU21D;57704;51.112;5.878;2022-10-31T02:07:31;16.91;70.52
70300;HTU21D;57704;51.112;5.878;2022-10-31T02:10:00;16.79;70.96
70300;HTU21D;57704;51.112;5.878;2022-10-31T02:12:30;16.71;71.51
70300;HTU21D;57704;51.112;5.878;2022-10-31T02:14:59;16.63;71.84
70300;HTU21D;57704;51.112;5.878;2022-10-31T02:17:26;16.56;72.04
70300;HTU21D;57704;51.112;5.878;2022-10-31T02:25:55;16.56;72.03
70300;HTU21D;57704;51.112;5.878;2022-10-31T02:28:52;16.52;72.16
70300;HTU21D;57704;51.112;5.878;2022-10-31T02:34:21;16.50;72.22
70300;HTU21D;57704;51.112;5.878;2022-10-31T02:37:09;16.50;72.12
70300;HTU21D;57704;51.112;5.878;2022-10-31T02:42:38;16.50;72.11
70300;HTU21D;57704;51.112;5.878;2022-10-31T02:47:53;16.51;71.90
70300;HTU21D;57704;51.112;5.878;2022-10-31T02:50:31;16.54;71.79
70300;HTU21D;57704;51.112;5.878;2022-10-31T02:52:58;16.54;71.69
70300;HTU21D;57704;51.112;5.878;2022-10-31T02:58:10;16.51;71.56
70300;HTU21D;57704;51.112;5.878;2022-10-31T03:09:26;16.37;71.61
70300;HTU21D;57704;51.112;5.878;2022-10-31T03:12:07;16.37;71.40
70300;HTU21D;57704;51.112;5.878;2022-10-31T03:14:47;16.36;71.36
70300;HTU21D;57704;51.112;5.878;2022-10-31T03:17:25;16.34;71.50
70300;HTU21D;57704;51.112;5.878;2022-10-31T03:19:55;16.32;71.57
70300;HTU21D;57704;51.112;5.878;2022-10-31T03:22:27;16.28;71.59
70300;HTU21D;57704;51.112;5.878;2022-10-31T03:25:01;16.27;71.38
70300;HTU21D;57704;51.112;5.878;2022-10-31T03:27:32;16.21;71.48
70300;HTU21D;57704;51.112;5.878;2022-10-31T03:30:03;16.18;71.70
70300;HTU21D;57704;51.112;5.878;2022-10-31T03:32:44;16.14;71.90
70300;HTU21D;57704;51.112;5.878;2022-10-31T03:35:18;16.10;72.09
70300;HTU21D;57704;51.112;5.878;2022-10-31T03:37:48;16.08;72.11
70300;HTU21D;57704;51.112;5.878;2022-10-31T03:40:18;16.10;72.03
70300;HTU21D;57704;51.112;5.878;2022-10-31T03:42:52;16.11;72.02
70300;HTU21D;57704;51.112;5.878;2022-10-31T03:45:26;16.06;72.17
70300;HTU21D;57704;51.112;5.878;2022-10-31T03:47:54;16.00;72.37
70300;HTU21D;57704;51.112;5.878;2022-10-31T03:50:25;15.93;72.67
70300;HTU21D;57704;51.112;5.878;2022-10-31T03:53:01;15.88;72.87
70300;HTU21D;57704;51.112;5.878;2022-10-31T03:55:41;15.83;73.05
70300;HTU21D;57704;51.112;5.878;2022-10-31T03:58:36;15.81;73.35
70300;HTU21D;57704;51.112;5.878;2022-10-31T04:01:07;15.85;73.33
70300;HTU21D;57704;51.112;5.878;2022-10-31T04:03:37;15.87;73.20
70300;HTU21D;57704;51.112;5.878;2022-10-31T04:06:09;15.88;73.22
70300;HTU21D;57704;51.112;5.878;2022-10-31T04:08:49;15.84;73.37
70300;HTU21D;57704;51.112;5.878;2022-10-31T04:11:21;15.82;73.31
70300;HTU21D;57704;51.112;5.878;2022-10-31T04:14:11;15.75;73.49
70300;HTU21D;57704;51.112;5.878;2022-10-31T04:16:42;15.72;73.67
70300;HTU21D;57704;51.112;5.878;2022-10-31T04:19:12;15.68;73.84
70300;HTU21D;57704;51.112;5.878;2022-10-31T04:21:39;15.62;73.93
70300;HTU21D;57704;51.112;5.878;2022-10-31T04:24:05;15.60;74.01
70300;HTU21D;57704;51.112;5.878;2022-10-31T04:26:32;15.57;74.17
70300;HTU21D;57704;51.112;5.878;2022-10-31T04:28:58;15.58;74.16
70300;HTU21D;57704;51.112;5.878;2022-10-31T04:31:27;15.54;74.16
70300;HTU21D;57704;51.112;5.878;2022-10-31T04:33:53;15.46;74.41
70300;HTU21D;57704;51.112;5.878;2022-10-31T04:36:20;15.42;74.63
70300;HTU21D;57704;51.112;5.878;2022-10-31T04:38:48;15.38;74.72
70300;HTU21D;57704;51.112;5.878;2022-10-31T04:41:28;15.37;74.84
70300;HTU21D;57704;51.112;5.878;2022-10-31T04:44:00;15.37;74.83
70300;HTU21D;57704;51.112;5.878;2022-10-31T04:46:27;15.37;74.90
70300;HTU21D;57704;51.112;5.878;2022-10-31T04:48:56;15.41;74.94
70300;HTU21D;57704;51.112;5.878;2022-10-31T04:51:23;15.44;74.79
70300;HTU21D;57704;51.112;5.878;2022-10-31T04:53:50;15.49;74.68
70300;HTU21D;57704;51.112;5.878;2022-10-31T04:56:35;15.52;74.56
70300;HTU21D;57704;51.112;5.878;2022-10-31T04:59:08;15.53;74.49
70300;HTU21D;57704;51.112;5.878;2022-10-31T05:01:45;15.53;74.39
70300;HTU21D;57704;51.112;5.878;2022-10-31T05:04:11;15.53;74.28
70300;HTU21D;57704;51.112;5.878;2022-10-31T05:06:37;15.54;74.04
70300;HTU21D;57704;51.112;5.878;2022-10-31T05:09:03;15.55;73.91
70300;HTU21D;57704;51.112;5.878;2022-10-31T05:11:30;15.54;73.84
70300;HTU21D;57704;51.112;5.878;2022-10-31T05:14:06;15.53;73.60
70300;HTU21D;57704;51.112;5.878;2022-10-31T05:17:04;15.45;73.59
70300;HTU21D;57704;51.112;5.878;2022-10-31T05:19:59;15.43;73.51
70300;HTU21D;57704;51.112;5.878;2022-10-31T05:22:50;15.39;73.44
70300;HTU21D;57704;51.112;5.878;2022-10-31T05:25:18;15.38;73.27
70300;HTU21D;57704;51.112;5.878;2022-10-31T05:27:48;15.38;73.13
70300;HTU21D;57704;51.112;5.878;2022-10-31T05:30:17;15.36;73.10
70300;HTU21D;57704;51.112;5.878;2022-10-31T05:32:46;15.33;73.12
70300;HTU21D;57704;51.112;5.878;2022-10-31T05:35:33;15.28;73.24
70300;HTU21D;57704;51.112;5.878;2022-10-31T05:38:22;15.27;73.24
70300;HTU21D;57704;51.112;5.878;2022-10-31T05:40:48;15.28;73.03
70300;HTU21D;57704;51.112;5.878;2022-10-31T05:43:15;15.27;72.97
70300;HTU21D;57704;51.112;5.878;2022-10-31T05:45:41;15.25;72.89
70300;HTU21D;57704;51.112;5.878;2022-10-31T05:48:17;15.23;72.73
70300;HTU21D;57704;51.112;5.878;2022-10-31T05:51:01;15.24;72.62
70300;HTU21D;57704;51.112;5.878;2022-10-31T05:53:27;15.21;72.57
70300;HTU21D;57704;51.112;5.878;2022-10-31T05:55:54;15.18;72.71
70300;HTU21D;57704;51.112;5.878;2022-10-31T05:58:21;15.16;72.70
70300;HTU21D;57704;51.112;5.878;2022-10-31T06:01:00;15.13;72.80
70300;HTU21D;57704;51.112;5.878;2022-10-31T06:03:26;15.11;72.80
70300;HTU21D;57704;51.112;5.878;2022-10-31T06:05:56;15.10;72.76
70300;HTU21D;57704;51.112;5.878;2022-10-31T06:08:25;15.10;72.65
70300;HTU21D;57704;51.112;5.878;2022-10-31T06:10:53;15.06;72.65
70300;HTU21D;57704;51.112;5.878;2022-10-31T06:13:27;15.04;72.64
70300;HTU21D;57704;51.112;5.878;2022-10-31T06:15:59;15.04;72.63
70300;HTU21D;57704;51.112;5.878;2022-10-31T06:18:33;15.04;72.62
70300;HTU21D;57704;51.112;5.878;2022-10-31T06:21:00;15.01;72.55
70300;HTU21D;57704;51.112;5.878;2022-10-31T06:23:26;15.02;72.49
70300;HTU21D;57704;51.112;5.878;2022-10-31T06:26:08;15.02;72.51
70300;HTU21D;57704;51.112;5.878;2022-10-31T06:28:35;15.01;72.56
70300;HTU21D;57704;51.112;5.878;2022-10-31T06:31:16;15.01;72.61
70300;HTU21D;57704;51.112;5.878;2022-10-31T06:33:42;15.03;72.48
70300;HTU21D;57704;51.112;5.878;2022-10-31T06:36:09;15.01;72.48
70300;HTU21D;57704;51.112;5.878;2022-10-31T06:38:36;14.94;72.94
70300;HTU21D;57704;51.112;5.878;2022-10-31T06:41:06;14.93;73.09
70300;HTU21D;57704;51.112;5.878;2022-10-31T06:43:46;14.91;73.11
70300;HTU21D;57704;51.112;5.878;2022-10-31T06:46:34;14.86;73.28
70300;HTU21D;57704;51.112;5.878;2022-10-31T06:49:13;14.83;73.55
70300;HTU21D;57704;51.112;5.878;2022-10-31T06:51:50;14.75;73.93
70300;HTU21D;57704;51.112;5.878;2022-10-31T06:54:17;14.72;74.31
70300;HTU21D;57704;51.112;5.878;2022-10-31T06:56:47;14.72;74.50
70300;HTU21D;57704;51.112;5.878;2022-10-31T06:59:14;14.74;74.55
70300;HTU21D;57704;51.112;5.878;2022-10-31T07:02:09;14.78;74.47
70300;HTU21D;57704;51.112;5.878;2022-10-31T07:04:36;14.83;74.45
70300;HTU21D;57704;51.112;5.878;2022-10-31T07:07:02;14.88;74.37
70300;HTU21D;57704;51.112;5.878;2022-10-31T07:09:29;14.92;74.23
70300;HTU21D;57704;51.112;5.878;2022-10-31T07:11:58;14.96;74.16
70300;HTU21D;57704;51.112;5.878;2022-10-31T07:14:24;14.98;74.13
70300;HTU21D;57704;51.112;5.878;2022-10-31T07:16:52;14.94;74.47
70300;HTU21D;57704;51.112;5.878;2022-10-31T07:19:24;14.95;74.66
70300;HTU21D;57704;51.112;5.878;2022-10-31T07:21:50;14.96;74.78
70300;HTU21D;57704;51.112;5.878;2022-10-31T07:24:16;15.02;74.87
70300;HTU21D;57704;51.112;5.878;2022-10-31T07:26:42;15.12;74.66
70300;HTU21D;57704;51.112;5.878;2022-10-31T07:29:09;15.24;74.36
70300;HTU21D;57704;51.112;5.878;2022-10-31T07:31:35;15.36;74.01
70300;HTU21D;57704;51.112;5.878;2022-10-31T07:34:08;15.44;73.78
70300;HTU21D;57704;51.112;5.878;2022-10-31T07:36:34;15.53;73.61
70300;HTU21D;57704;51.112;5.878;2022-10-31T07:39:03;15.66;73.48
70300;HTU21D;57704;51.112;5.878;2022-10-31T07:41:31;15.78;73.32
70300;HTU21D;57704;51.112;5.878;2022-10-31T07:43:57;15.91;73.30
70300;HTU21D;57704;51.112;5.878;2022-10-31T07:46:42;16.02;72.75
70300;HTU21D;57704;51.112;5.878;2022-10-31T07:49:27;16.04;72.50
70300;HTU21D;57704;51.112;5.878;2022-10-31T07:52:19;16.10;72.51
70300;HTU21D;57704;51.112;5.878;2022-10-31T07:55:04;16.19;72.44
70300;HTU21D;57704;51.112;5.878;2022-10-31T07:57:30;16.28;72.50
70300;HTU21D;57704;51.112;5.878;2022-10-31T07:59:57;16.50;72.55
70300;HTU21D;57704;51.112;5.878;2022-10-31T08:02:23;16.74;71.99
70300;HTU21D;57704;51.112;5.878;2022-10-31T08:05:30;16.92;70.97
70300;HTU21D;57704;51.112;5.878;2022-10-31T08:08:19;16.88;70.74
70300;HTU21D;57704;51.112;5.878;2022-10-31T08:10:47;16.93;71.11
70300;HTU21D;57704;51.112;5.878;2022-10-31T08:13:13;17.15;71.22
70300;HTU21D;57704;51.112;5.878;2022-10-31T08:15:43;17.41;70.60
70300;HTU21D;57704;51.112;5.878;2022-10-31T08:18:14;17.52;69.78
70300;HTU21D;57704;51.112;5.878;2022-10-31T08:20:41;17.51;69.45
70300;HTU21D;57704;51.112;5.878;2022-10-31T08:23:09;17.40;69.24
70300;HTU21D;57704;51.112;5.878;2022-10-31T08:25:36;17.19;69.36
70300;HTU21D;57704;51.112;5.878;2022-10-31T08:28:03;16.91;70.03
70300;HTU21D;57704;51.112;5.878;2022-10-31T08:30:31;16.64;70.87
70300;HTU21D;57704;51.112;5.878;2022-10-31T08:33:33;16.42;71.97
70300;HTU21D;57704;51.112;5.878;2022-10-31T08:36:27;16.39;72.41
70300;HTU21D;57704;51.112;5.878;2022-10-31T08:39:00;16.36;72.77
70300;HTU21D;57704;51.112;5.878;2022-10-31T08:41:27;16.31;73.27
70300;HTU21D;57704;51.112;5.878;2022-10-31T08:43:54;16.34;73.51
70300;HTU21D;57704;51.112;5.878;2022-10-31T08:46:20;16.30;73.88
70300;HTU21D;57704;51.112;5.878;2022-10-31T08:48:50;16.32;74.12
70300;HTU21D;57704;51.112;5.878;2022-10-31T08:51:21;16.34;74.33
70300;HTU21D;57704;51.112;5.878;2022-10-31T08:53:51;16.41;74.49
70300;HTU21D;57704;51.112;5.878;2022-10-31T08:56:32;16.60;74.89
70300;HTU21D;57704;51.112;5.878;2022-10-31T08:59:00;16.94;74.89
70300;HTU21D;57704;51.112;5.878;2022-10-31T09:01:42;17.31;73.94
70300;HTU21D;57704;51.112;5.878;2022-10-31T09:04:08;17.62;73.39
70300;HTU21D;57704;51.112;5.878;2022-10-31T09:06:35;18.03;73.33
70300;HTU21D;57704;51.112;5.878;2022-10-31T09:09:03;18.58;71.71
70300;HTU21D;57704;51.112;5.878;2022-10-31T09:11:30;19.05;70.32
70300;HTU21D;57704;51.112;5.878;2022-10-31T09:14:15;19.43;68.78
70300;HTU21D;57704;51.112;5.878;2022-10-31T09:17:02;19.59;67.17
70300;HTU21D;57704;51.112;5.878;2022-10-31T09:19:44;19.47;66.30
70300;HTU21D;57704;51.112;5.878;2022-10-31T09:22:11;19.20;66.59
70300;HTU21D;57704;51.112;5.878;2022-10-31T09:24:37;18.95;67.30
70300;HTU21D;57704;51.112;5.878;2022-10-31T09:27:03;18.83;68.23
70300;HTU21D;57704;51.112;5.878;2022-10-31T09:29:30;18.86;68.75
70300;HTU21D;57704;51.112;5.878;2022-10-31T09:31:59;18.94;69.05
70300;HTU21D;57704;51.112;5.878;2022-10-31T09:34:27;19.02;68.81
70300;HTU21D;57704;51.112;5.878;2022-10-31T09:37:03;19.10;68.58
70300;HTU21D;57704;51.112;5.878;2022-10-31T09:39:29;19.09;68.27
70300;HTU21D;57704;51.112;5.878;2022-10-31T09:50:20;18.73;69.13
70300;HTU21D;57704;51.112;5.878;2022-10-31T09:53:04;18.82;68.83
70300;HTU21D;57704;51.112;5.878;2022-10-31T09:55:39;18.79;68.87
70300;HTU21D;57704;51.112;5.878;2022-10-31T09:58:15;18.80;68.83
70300;HTU21D;57704;51.112;5.878;2022-10-31T10:00:47;18.80;68.84
70300;HTU21D;57704;51.112;5.878;2022-10-31T10:03:44;18.74;68.78
70300;HTU21D;57704;51.112;5.878;2022-10-31T10:06:46;18.73;68.89
70300;HTU21D;57704;51.112;5.878;2022-10-31T10:09:36;18.70;68.92
70300;HTU21D;57704;51.112;5.878;2022-10-31T10:13:12;18.67;69.13
70300;HTU21D;57704;51.112;5.878;2022-10-31T10:15:53;18.71;69.11
70300;HTU21D;57704;51.112;5.878;2022-10-31T10:26:21;18.66;69.49
70300;HTU21D;57704;51.112;5.878;2022-10-31T10:30:12;18.74;69.42
70300;HTU21D;57704;51.112;5.878;2022-10-31T10:32:17;18.77;69.17
70300;HTU21D;57704;51.112;5.878;2022-10-31T10:34:51;18.76;69.18
70300;HTU21D;57704;51.112;5.878;2022-10-31T10:39:58;18.71;69.44
70300;HTU21D;57704;51.112;5.878;2022-10-31T10:42:27;18.71;69.57
70300;HTU21D;57704;51.112;5.878;2022-10-31T10:45:18;18.79;69.77
70300;HTU21D;57704;51.112;5.878;2022-10-31T10:50:50;19.02;69.22
70300;HTU21D;57704;51.112;5.878;2022-10-31T10:58:58;19.21;67.99
70300;HTU21D;57704;51.112;5.878;2022-10-31T11:01:25;19.15;68.07
70300;HTU21D;57704;51.112;5.878;2022-10-31T11:03:51;19.15;68.04
70300;HTU21D;57704;51.112;5.878;2022-10-31T11:06:21;19.18;68.07
70300;HTU21D;57704;51.112;5.878;2022-10-31T11:08:52;19.23;68.17
70300;HTU21D;57704;51.112;5.878;2022-10-31T11:11:28;19.25;67.93
70300;HTU21D;57704;51.112;5.878;2022-10-31T11:14:04;19.24;68.27
70300;HTU21D;57704;51.112;5.878;2022-10-31T11:16:45;19.22;68.43
70300;HTU21D;57704;51.112;5.878;2022-10-31T11:19:24;19.29;68.58
70300;HTU21D;57704;51.112;5.878;2022-10-31T11:21:51;19.41;68.46
70300;HTU21D;57704;51.112;5.878;2022-10-31T11:24:23;19.56;68.10
70300;HTU21D;57704;51.112;5.878;2022-10-31T11:26:51;19.70;67.76
70300;HTU21D;57704;51.112;5.878;2022-10-31T11:29:28;19.74;67.36
70300;HTU21D;57704;51.112;5.878;2022-10-31T11:31:57;19.75;67.14
70300;HTU21D;57704;51.112;5.878;2022-10-31T11:34:30;19.85;66.56
70300;HTU21D;57704;51.112;5.878;2022-10-31T11:37:19;19.83;66.33
70300;HTU21D;57704;51.112;5.878;2022-10-31T11:39:54;19.83;66.01
70300;HTU21D;57704;51.112;5.878;2022-10-31T11:42:24;19.84;65.98
70300;HTU21D;57704;51.112;5.878;2022-10-31T11:44:53;19.90;65.99
70300;HTU21D;57704;51.112;5.878;2022-10-31T11:47:29;20.00;65.96
70300;HTU21D;57704;51.112;5.878;2022-10-31T11:49:57;20.11;65.40
70300;HTU21D;57704;51.112;5.878;2022-10-31T11:52:30;20.17;64.55
70300;HTU21D;57704;51.112;5.878;2022-10-31T11:55:01;20.20;64.59
70300;HTU21D;57704;51.112;5.878;2022-10-31T11:57:49;20.15;64.50
70300;HTU21D;57704;51.112;5.878;2022-10-31T12:00:29;20.20;64.78
70300;HTU21D;57704;51.112;5.878;2022-10-31T12:03:25;20.34;64.47
70300;HTU21D;57704;51.112;5.878;2022-10-31T12:06:07;20.46;63.44
70300;HTU21D;57704;51.112;5.878;2022-10-31T12:08:38;20.32;64.07
70300;HTU21D;57704;51.112;5.878;2022-10-31T12:14:17;20.37;64.27
70300;HTU21D;57704;51.112;5.878;2022-10-31T12:16:59;20.40;63.67
70300;HTU21D;57704;51.112;5.878;2022-10-31T12:25:42;20.28;63.82
70300;HTU21D;57704;51.112;5.878;2022-10-31T12:37:07;20.01;64.00
70300;HTU21D;57704;51.112;5.878;2022-10-31T12:45:29;20.09;63.99
70300;HTU21D;57704;51.112;5.878;2022-10-31T12:48:03;20.12;63.51
70300;HTU21D;57704;51.112;5.878;2022-10-31T12:56:31;20.17;63.34
70300;HTU21D;57704;51.112;5.878;2022-10-31T12:59:33;20.16;63.50
70300;HTU21D;57704;51.112;5.878;2022-10-31T13:16:17;20.73;62.76
70300;HTU21D;57704;51.112;5.878;2022-10-31T13:24:00;21.03;61.67
70300;HTU21D;57704;51.112;5.878;2022-10-31T13:26:45;21.07;61.48
70300;HTU21D;57704;51.112;5.878;2022-10-31T13:31:47;21.07;61.40
70300;HTU21D;57704;51.112;5.878;2022-10-31T13:34:38;21.08;61.18
70300;HTU21D;57704;51.112;5.878;2022-10-31T13:44:51;21.05;61.85
70300;HTU21D;57704;51.112;5.878;2022-10-31T13:47:29;21.15;61.34
70300;HTU21D;57704;51.112;5.878;2022-10-31T13:50:35;21.19;61.29
70300;HTU21D;57704;51.112;5.878;2022-10-31T13:53:22;21.32;60.89
70300;HTU21D;57704;51.112;5.878;2022-10-31T13:55:50;21.30;60.97
70300;HTU21D;57704;51.112;5.878;2022-10-31T13:58:30;21.34;60.64
70300;HTU21D;57704;51.112;5.878;2022-10-31T14:01:05;21.35;60.60
70300;HTU21D;57704;51.112;5.878;2022-10-31T14:03:40;21.34;60.64
70300;HTU21D;57704;51.112;5.878;2022-10-31T14:06:09;21.36;60.64
70300;HTU21D;57704;51.112;5.878;2022-10-31T14:08:41;21.37;60.48
70300;HTU21D;57704;51.112;5.878;2022-10-31T14:11:24;21.36;60.46
70300;HTU21D;57704;51.112;5.878;2022-10-31T14:13:56;21.29;60.85
70300;HTU21D;57704;51.112;5.878;2022-10-31T14:16:30;21.31;60.96
70300;HTU21D;57704;51.112;5.878;2022-10-31T14:19:13;21.25;60.87
70300;HTU21D;57704;51.112;5.878;2022-10-31T14:21:42;21.14;61.05
70300;HTU21D;57704;51.112;5.878;2022-10-31T14:24:35;21.02;61.47
70300;HTU21D;57704;51.112;5.878;2022-10-31T14:29:53;20.91;60.99
70300;HTU21D;57704;51.112;5.878;2022-10-31T14:32:25;20.83;61.30
70300;HTU21D;57704;51.112;5.878;2022-10-31T14:34:53;20.77;61.15
70300;HTU21D;57704;51.112;5.878;2022-10-31T14:51:19;20.40;61.86
70300;HTU21D;57704;51.112;5.878;2022-10-31T14:53:55;20.32;62.26
70300;HTU21D;57704;51.112;5.878;2022-10-31T14:58:48;20.31;62.39
70300;HTU21D;57704;51.112;5.878;2022-10-31T15:01:36;20.31;62.18
70300;HTU21D;57704;51.112;5.878;2022-10-31T15:04:23;20.22;62.43
70300;HTU21D;57704;51.112;5.878;2022-10-31T15:09:39;20.05;62.73
70300;HTU21D;57704;51.112;5.878;2022-10-31T15:12:30;19.97;63.15
70300;HTU21D;57704;51.112;5.878;2022-10-31T15:14:56;19.99;63.14
70300;HTU21D;57704;51.112;5.878;2022-10-31T15:17:25;19.92;63.22
70300;HTU21D;57704;51.112;5.878;2022-10-31T15:19:52;19.82;63.47
70300;HTU21D;57704;51.112;5.878;2022-10-31T15:22:23;19.71;63.68
70300;HTU21D;57704;51.112;5.878;2022-10-31T15:24:49;19.60;63.83
70300;HTU21D;57704;51.112;5.878;2022-10-31T15:27:23;19.47;64.07
70300;HTU21D;57704;51.112;5.878;2022-10-31T15:29:54;19.37;64.29
70300;HTU21D;57704;51.112;5.878;2022-10-31T15:32:27;19.26;64.40
70300;HTU21D;57704;51.112;5.878;2022-10-31T15:34:55;19.21;64.18
70300;HTU21D;57704;51.112;5.878;2022-10-31T15:37:25;19.11;64.27
70300;HTU21D;57704;51.112;5.878;2022-10-31T15:39:52;18.96;64.58
70300;HTU21D;57704;51.112;5.878;2022-10-31T15:42:24;18.89;64.68
70300;HTU21D;57704;51.112;5.878;2022-10-31T15:47:33;18.73;65.07
70300;HTU21D;57704;51.112;5.878;2022-10-31T15:50:01;18.68;65.11
70300;HTU21D;57704;51.112;5.878;2022-10-31T15:55:32;18.54;65.39
70300;HTU21D;57704;51.112;5.878;2022-10-31T15:58:33;18.51;65.47
70300;HTU21D;57704;51.112;5.878;2022-10-31T16:01:18;18.42;65.77
70300;HTU21D;57704;51.112;5.878;2022-10-31T16:06:31;18.29;66.04
70300;HTU21D;57704;51.112;5.878;2022-10-31T16:08:58;18.30;66.05
70300;HTU21D;57704;51.112;5.878;2022-10-31T16:11:34;18.21;66.30
70300;HTU21D;57704;51.112;5.878;2022-10-31T16:16:29;18.12;66.50
70300;HTU21D;57704;51.112;5.878;2022-10-31T16:18:57;18.11;66.55
70300;HTU21D;57704;51.112;5.878;2022-10-31T16:21:37;18.09;66.62
70300;HTU21D;57704;51.112;5.878;2022-10-31T16:26:53;18.02;66.75
70300;HTU21D;57704;51.112;5.878;2022-10-31T16:31:55;18.00;66.75
70300;HTU21D;57704;51.112;5.878;2022-10-31T16:34:22;17.99;66.79
70300;HTU21D;57704;51.112;5.878;2022-10-31T16:36:49;18.02;66.72
70300;HTU21D;57704;51.112;5.878;2022-10-31T16:39:16;17.98;66.85
70300;HTU21D;57704;51.112;5.878;2022-10-31T16:41:50;17.97;66.87
70300;HTU21D;57704;51.112;5.878;2022-10-31T16:44:25;17.98;66.82
70300;HTU21D;57704;51.112;5.878;2022-10-31T16:47:14;17.98;66.87
70300;HTU21D;57704;51.112;5.878;2022-10-31T16:49:46;17.98;66.80
70300;HTU21D;57704;51.112;5.878;2022-10-31T16:52:16;17.94;66.87
70300;HTU21D;57704;51.112;5.878;2022-10-31T16:54:42;17.90;66.98
70300;HTU21D;57704;51.112;5.878;2022-10-31T16:57:24;17.89;67.10
70300;HTU21D;57704;51.112;5.878;2022-10-31T16:59:52;17.79;67.30
70300;HTU21D;57704;51.112;5.878;2022-10-31T17:02:22;17.76;67.46
70300;HTU21D;57704;51.112;5.878;2022-10-31T17:04:48;17.74;67.52
70300;HTU21D;57704;51.112;5.878;2022-10-31T17:07:14;17.68;67.71
70300;HTU21D;57704;51.112;5.878;2022-10-31T17:09:40;17.63;67.82
70300;HTU21D;57704;51.112;5.878;2022-10-31T17:12:16;17.58;68.04
70300;HTU21D;57704;51.112;5.878;2022-10-31T17:14:48;17.52;68.15
70300;HTU21D;57704;51.112;5.878;2022-10-31T17:17:16;17.51;68.20
70300;HTU21D;57704;51.112;5.878;2022-10-31T17:19:42;17.46;68.31
70300;HTU21D;57704;51.112;5.878;2022-10-31T17:22:12;17.40;68.43
70300;HTU21D;57704;51.112;5.878;2022-10-31T17:24:38;17.34;68.63
70300;HTU21D;57704;51.112;5.878;2022-10-31T17:27:04;17.28;68.78
70300;HTU21D;57704;51.112;5.878;2022-10-31T17:29:30;17.24;68.88
70300;HTU21D;57704;51.112;5.878;2022-10-31T17:31:58;17.23;68.94
70300;HTU21D;57704;51.112;5.878;2022-10-31T17:34:25;17.22;68.98
70300;HTU21D;57704;51.112;5.878;2022-10-31T17:36:52;17.16;69.23
70300;HTU21D;57704;51.112;5.878;2022-10-31T17:39:19;17.10;69.39
70300;HTU21D;57704;51.112;5.878;2022-10-31T17:41:45;17.05;69.54
70300;HTU21D;57704;51.112;5.878;2022-10-31T17:44:14;17.03;69.62
70300;HTU21D;57704;51.112;5.878;2022-10-31T17:46:41;17.00;69.64
70300;HTU21D;57704;51.112;5.878;2022-10-31T17:49:10;17.00;69.65
70300;HTU21D;57704;51.112;5.878;2022-10-31T17:51:37;17.02;69.65
70300;HTU21D;57704;51.112;5.878;2022-10-31T17:54:04;17.01;69.60
70300;HTU21D;57704;51.112;5.878;2022-10-31T17:56:31;17.00;69.58
70300;HTU21D;57704;51.112;5.878;2022-10-31T17:58:58;17.00;69.55
70300;HTU21D;57704;51.112;5.878;2022-10-31T18:01:24;16.96;69.64
70300;HTU21D;57704;51.112;5.878;2022-10-31T18:03:51;16.93;69.75
70300;HTU21D;57704;51.112;5.878;2022-10-31T18:06:17;16.92;69.76
70300;HTU21D;57704;51.112;5.878;2022-10-31T18:08:44;16.89;69.79
70300;HTU21D;57704;51.112;5.878;2022-10-31T18:11:15;16.85;69.98
70300;HTU21D;57704;51.112;5.878;2022-10-31T18:13:42;16.84;69.93
70300;HTU21D;57704;51.112;5.878;2022-10-31T18:16:13;16.81;69.89
70300;HTU21D;57704;51.112;5.878;2022-10-31T18:18:40;16.79;69.91
70300;HTU21D;57704;51.112;5.878;2022-10-31T18:21:07;16.75;69.94
70300;HTU21D;57704;51.112;5.878;2022-10-31T18:23:33;16.74;69.95
70300;HTU21D;57704;51.112;5.878;2022-10-31T18:25:59;16.71;69.99
70300;HTU21D;57704;51.112;5.878;2022-10-31T18:28:25;16.69;69.97